createdAt,value
2019-05-11T00:01:38.817Z,9.13
2019-05-11T00:04:09.375Z,9.26
2019-05-11T00:06:38.969Z,9.39
2019-05-11T00:09:08.638Z,9.49
2019-05-11T00:11:38.239Z,9.65
2019-05-11T00:14:08.117Z,9.67
2019-05-11T00:16:37.662Z,9.53
2019-05-11T00:19:07.242Z,9.40
2019-05-11T00:21:36.776Z,9.20
2019-05-11T00:24:06.300Z,9.04
2019-05-11T00:26:35.851Z,9.37
2019-05-11T00:29:05.456Z,9.50
2019-05-11T00:31:34.976Z,9.42
2019-05-11T00:34:07.099Z,9.48
2019-05-11T00:36:37.162Z,9.33
2019-05-11T00:39:08.565Z,9.34
2019-05-11T00:41:38.141Z,9.25
2019-05-11T00:44:07.812Z,9.34
2019-05-11T00:46:37.321Z,9.42
2019-05-11T00:49:06.988Z,9.36
2019-05-11T00:51:37.200Z,9.29
2019-05-11T00:54:06.767Z,9.11
2019-05-11T00:56:36.271Z,9.03
2019-05-11T00:59:20.980Z,9.15
2019-05-11T01:01:37.802Z,9.14
2019-05-11T01:04:07.522Z,9.09
2019-05-11T01:06:37.087Z,8.98
2019-05-11T01:09:08.676Z,9.04
2019-05-11T01:11:38.177Z,9.02
2019-05-11T01:14:09.072Z,9.27
2019-05-11T01:16:38.634Z,9.41
2019-05-11T01:19:08.225Z,9.37
2019-05-11T01:21:37.768Z,9.47
2019-05-11T01:24:07.351Z,9.52
2019-05-11T01:26:36.876Z,9.58
2019-05-11T01:29:06.583Z,9.69
2019-05-11T01:31:36.134Z,9.76
2019-05-11T01:34:05.883Z,9.65
2019-05-11T01:36:35.994Z,9.51
2019-05-11T01:39:07.858Z,9.65
2019-05-11T01:41:37.512Z,9.44
2019-05-11T01:44:07.066Z,9.47
2019-05-11T01:46:36.637Z,9.62
2019-05-11T01:49:06.350Z,9.56
2019-05-11T01:51:35.944Z,9.62
2019-05-11T01:54:05.591Z,9.51
2019-05-11T01:56:35.491Z,9.29
2019-05-11T01:59:06.212Z,9.23
2019-05-11T02:01:35.884Z,9.17
2019-05-11T02:04:05.617Z,9.29
2019-05-11T02:06:35.170Z,9.23
2019-05-11T02:09:07.023Z,9.12
2019-05-11T02:11:36.645Z,9.14
2019-05-11T02:14:09.451Z,9.04
2019-05-11T02:16:39.003Z,8.92
2019-05-11T02:19:08.714Z,8.96
2019-05-11T02:21:38.322Z,9.04
2019-05-11T02:24:07.958Z,9.20
2019-05-11T02:26:37.531Z,9.11
2019-05-11T02:29:07.123Z,8.99
2019-05-11T02:31:36.687Z,9.06
2019-05-11T02:34:06.282Z,9.02
2019-05-11T02:36:35.941Z,9.17
2019-05-11T02:39:08.128Z,9.38
2019-05-11T02:41:38.330Z,9.41
2019-05-11T02:44:08.440Z,9.45
2019-05-11T02:46:38.135Z,9.49
2019-05-11T02:49:07.859Z,9.46
2019-05-11T02:51:38.588Z,9.59
2019-05-11T02:54:09.508Z,9.57
2019-05-11T02:56:38.995Z,9.47
2019-05-11T02:59:10.647Z,9.58
2019-05-11T03:01:40.184Z,9.61
2019-05-11T03:04:09.678Z,9.68
2019-05-11T03:06:39.249Z,9.68
2019-05-11T03:09:08.774Z,9.70
2019-05-11T03:11:53.954Z,9.64
2019-05-11T03:14:11.818Z,9.67
2019-05-11T03:16:41.407Z,9.52
2019-05-11T03:19:11.308Z,9.57
2019-05-11T03:21:40.905Z,9.46
2019-05-11T03:24:10.468Z,9.50
2019-05-11T03:26:39.980Z,9.34
2019-05-11T03:29:09.589Z,9.22
2019-05-11T03:31:39.310Z,9.19
2019-05-11T03:34:08.993Z,9.03
2019-05-11T03:36:38.568Z,8.72
2019-05-11T03:39:08.248Z,8.48
2019-05-11T03:41:37.824Z,8.65
2019-05-11T03:44:07.431Z,8.66
2019-05-11T03:46:37.005Z,8.82
2019-05-11T03:49:06.536Z,9.05
2019-05-11T03:51:36.102Z,9.21
2019-05-11T03:54:06.388Z,9.08
2019-05-11T03:56:35.885Z,8.92
2019-05-11T03:59:05.831Z,9.20
2019-05-11T04:01:35.320Z,9.53
2019-05-11T04:04:04.975Z,9.70
2019-05-11T04:06:34.513Z,9.84
2019-05-11T04:09:06.263Z,9.91
2019-05-11T04:11:35.827Z,10.14
2019-05-11T04:14:05.542Z,10.25
2019-05-11T04:16:35.608Z,10.25
2019-05-11T04:19:05.171Z,10.38
2019-05-11T04:21:34.976Z,10.42
2019-05-11T04:24:04.725Z,10.37
2019-05-11T04:26:34.240Z,10.42
2019-05-11T04:29:03.831Z,10.32
2019-05-11T04:31:33.411Z,10.37
2019-05-11T04:34:02.959Z,10.52
2019-05-11T04:36:32.510Z,10.77
2019-05-11T04:39:02.018Z,10.57
2019-05-11T04:41:31.609Z,10.44
2019-05-11T04:44:01.445Z,10.43
2019-05-11T04:46:30.985Z,10.49
2019-05-11T04:49:00.586Z,10.55
2019-05-11T04:51:30.203Z,10.57
2019-05-11T04:53:59.731Z,10.75
2019-05-11T04:56:29.321Z,10.96
2019-05-11T04:58:58.855Z,10.90
2019-05-11T05:01:28.432Z,11.15
2019-05-11T05:04:13.433Z,11.11
2019-05-11T05:06:29.695Z,10.96
2019-05-11T05:09:03.725Z,10.85
2019-05-11T05:11:36.118Z,10.93
2019-05-11T05:14:08.035Z,10.98
2019-05-11T05:16:33.083Z,11.02
2019-05-11T05:19:02.798Z,11.00
2019-05-11T05:21:32.868Z,10.96
2019-05-11T05:24:02.495Z,10.83
2019-05-11T05:26:32.155Z,10.64
2019-05-11T05:29:01.781Z,10.64
2019-05-11T05:31:31.436Z,10.76
2019-05-11T05:34:01.596Z,10.84
2019-05-11T05:36:31.556Z,10.91
2019-05-11T05:39:01.153Z,10.79
2019-05-11T05:41:30.783Z,10.81
2019-05-11T05:44:00.932Z,10.77
2019-05-11T05:46:30.496Z,10.89
2019-05-11T05:49:00.141Z,11.10
2019-05-11T05:51:29.674Z,11.22
2019-05-11T05:53:59.179Z,11.36
2019-05-11T05:56:28.697Z,11.42
2019-05-11T05:58:58.336Z,11.63
2019-05-11T06:01:28.011Z,11.68
2019-05-11T06:03:57.784Z,11.67
2019-05-11T06:06:29.364Z,11.66
2019-05-11T06:08:58.848Z,11.62
2019-05-11T06:11:28.413Z,11.60
2019-05-11T06:13:57.926Z,11.63
2019-05-11T06:16:27.423Z,11.20
2019-05-11T06:18:56.944Z,11.27
2019-05-11T06:21:26.909Z,11.39
2019-05-11T06:23:56.420Z,11.35
2019-05-11T06:26:25.931Z,11.29
2019-05-11T06:28:56.104Z,11.46
2019-05-11T06:31:25.629Z,11.45
2019-05-11T06:33:55.292Z,11.48
2019-05-11T06:36:24.826Z,11.65
2019-05-11T06:38:54.342Z,11.62
2019-05-11T06:41:23.879Z,11.76
2019-05-11T06:44:01.932Z,11.89
2019-05-11T06:46:24.870Z,12.06
2019-05-11T06:48:54.390Z,12.26
2019-05-11T06:51:25.915Z,12.43
2019-05-11T06:53:55.516Z,12.50
2019-05-11T06:56:25.058Z,12.46
2019-05-11T06:58:54.580Z,12.52
2019-05-11T07:01:25.399Z,12.96
2019-05-11T07:03:54.976Z,12.92
2019-05-11T07:06:28.252Z,13.08
2019-05-11T07:08:55.788Z,13.32
2019-05-11T07:11:25.396Z,13.62
2019-05-11T07:13:56.787Z,13.51
2019-05-11T07:16:26.569Z,13.55
2019-05-11T07:18:56.150Z,14.13
2019-05-11T07:21:25.671Z,14.34
2019-05-11T07:23:55.342Z,14.47
2019-05-11T07:26:24.861Z,14.46
2019-05-11T07:28:54.442Z,14.63
2019-05-11T07:31:23.945Z,14.81
2019-05-11T07:33:53.461Z,14.79
2019-05-11T07:36:23.447Z,14.18
2019-05-11T07:38:52.956Z,14.05
2019-05-11T07:41:22.985Z,13.99
2019-05-11T07:43:52.612Z,14.26
2019-05-11T07:46:22.130Z,14.14
2019-05-11T07:48:51.667Z,14.29
2019-05-11T07:51:21.348Z,14.33
2019-05-11T07:53:50.878Z,14.18
2019-05-11T07:56:20.443Z,14.47
2019-05-11T07:58:50.221Z,14.75
2019-05-11T08:01:19.782Z,14.83
2019-05-11T08:03:49.306Z,15.22
2019-05-11T08:06:18.849Z,14.94
2019-05-11T08:08:49.030Z,14.95
2019-05-11T08:11:19.055Z,15.34
2019-05-11T08:13:48.680Z,16.15
2019-05-11T08:16:18.701Z,16.81
2019-05-11T08:18:48.603Z,17.60
2019-05-11T08:21:18.609Z,18.07
2019-05-11T08:23:48.526Z,17.20
2019-05-11T08:26:19.013Z,16.90
2019-05-11T08:28:48.837Z,17.66
2019-05-11T08:31:18.931Z,17.95
2019-05-11T08:33:48.481Z,17.53
2019-05-11T08:36:18.527Z,17.49
2019-05-11T08:38:48.513Z,17.64
2019-05-11T08:41:18.588Z,17.93
2019-05-11T08:43:48.585Z,17.93
2019-05-11T08:46:18.695Z,18.01
2019-05-11T08:48:48.408Z,18.06
2019-05-11T08:51:18.692Z,18.06
2019-05-11T08:53:48.426Z,18.24
2019-05-11T08:56:18.926Z,18.62
2019-05-11T08:58:49.318Z,18.26
2019-05-11T09:01:19.295Z,18.70
2019-05-11T09:03:48.813Z,19.00
2019-05-11T09:06:18.775Z,18.56
2019-05-11T09:08:49.275Z,18.66
2019-05-11T09:11:19.384Z,18.69
2019-05-11T09:13:49.101Z,18.38
2019-05-11T09:16:19.204Z,18.26
2019-05-11T09:18:48.995Z,18.42
2019-05-11T09:21:19.184Z,18.92
2019-05-11T09:23:48.896Z,18.95
2019-05-11T09:26:18.513Z,19.24
2019-05-11T09:28:48.207Z,19.11
2019-05-11T09:31:18.842Z,19.40
2019-05-11T09:33:48.869Z,19.44
2019-05-11T09:36:18.512Z,19.09
2019-05-11T09:38:48.944Z,19.23
2019-05-11T09:41:19.247Z,19.26
2019-05-11T09:43:48.919Z,19.40
2019-05-11T09:46:18.982Z,18.87
2019-05-11T09:48:49.022Z,18.08
2019-05-11T09:51:19.243Z,17.52
2019-05-11T09:53:48.958Z,18.04
2019-05-11T09:56:18.650Z,18.68
2019-05-11T09:58:48.489Z,19.10
2019-05-11T10:01:18.555Z,19.47
2019-05-11T10:03:48.486Z,19.56
2019-05-11T10:06:19.059Z,20.05
2019-05-11T10:08:49.007Z,20.64
2019-05-11T10:11:19.090Z,20.94
2019-05-11T10:13:49.246Z,21.03
2019-05-11T10:16:18.809Z,21.02
2019-05-11T10:18:49.315Z,21.14
2019-05-11T10:21:19.314Z,21.80
2019-05-11T10:23:49.165Z,21.65
2019-05-11T10:26:19.118Z,22.00
2019-05-11T10:28:48.655Z,22.26
2019-05-11T10:31:18.383Z,21.64
2019-05-11T10:33:49.042Z,21.87
2019-05-11T10:36:19.549Z,22.19
2019-05-11T10:38:49.056Z,21.92
2019-05-11T10:41:18.635Z,22.31
2019-05-11T10:43:49.181Z,22.13
2019-05-11T10:46:22.901Z,21.73
2019-05-11T10:48:50.224Z,22.10
2019-05-11T10:51:19.818Z,21.57
2019-05-11T10:53:51.923Z,21.53
2019-05-11T10:56:21.036Z,21.71
2019-05-11T10:58:51.505Z,22.03
2019-05-11T11:01:21.114Z,21.40
2019-05-11T11:03:50.747Z,21.44
2019-05-11T11:06:20.361Z,21.89
2019-05-11T11:08:49.933Z,22.30
2019-05-11T11:11:19.581Z,22.65
2019-05-11T11:13:49.158Z,23.06
2019-05-11T11:16:35.099Z,22.46
2019-05-11T11:18:49.970Z,22.74
2019-05-11T11:21:22.943Z,22.42
2019-05-11T11:23:51.572Z,22.21
2019-05-11T11:26:21.180Z,22.73
2019-05-11T11:28:50.779Z,23.12
2019-05-11T11:31:20.400Z,23.24
2019-05-11T11:33:49.902Z,23.11
2019-05-11T11:36:19.442Z,23.11
2019-05-11T11:38:49.153Z,22.57
2019-05-11T11:41:18.892Z,22.58
2019-05-11T11:43:48.658Z,22.63
2019-05-11T11:46:18.945Z,23.10
2019-05-11T11:48:49.145Z,23.07
2019-05-11T11:51:19.051Z,23.14
2019-05-11T11:53:48.903Z,22.78
2019-05-11T11:56:19.138Z,22.84
2019-05-11T11:58:49.239Z,23.12
2019-05-11T12:01:19.187Z,23.22
2019-05-11T12:03:49.158Z,23.08
2019-05-11T12:06:19.392Z,23.22
2019-05-11T12:08:49.794Z,22.79
2019-05-11T12:11:19.516Z,22.65
2019-05-11T12:13:49.608Z,22.89
2019-05-11T12:16:19.158Z,22.32
2019-05-11T12:18:48.892Z,22.75
2019-05-11T12:21:18.864Z,22.57
2019-05-11T12:23:48.817Z,22.72
2019-05-11T12:26:18.581Z,22.73
2019-05-11T12:28:48.994Z,22.50
2019-05-11T12:31:18.796Z,22.29
2019-05-11T12:33:48.615Z,22.35
2019-05-11T12:36:19.009Z,22.93
2019-05-11T12:38:49.102Z,22.74
2019-05-11T12:41:19.306Z,22.64
2019-05-11T12:43:49.439Z,22.68
2019-05-11T12:46:19.179Z,23.14
2019-05-11T12:48:48.812Z,22.84
2019-05-11T12:51:18.889Z,22.36
2019-05-11T12:53:48.658Z,22.55
2019-05-11T12:56:19.140Z,23.01
2019-05-11T12:58:49.298Z,22.38
2019-05-11T13:01:19.165Z,22.68
2019-05-11T13:03:49.334Z,22.86
2019-05-11T13:06:21.671Z,22.66
2019-05-11T13:08:51.192Z,22.03
2019-05-11T13:11:20.763Z,21.84
2019-05-11T13:13:50.288Z,21.80
2019-05-11T13:16:19.808Z,22.20
2019-05-11T13:18:49.741Z,22.34
2019-05-11T13:21:19.292Z,22.46
2019-05-11T13:23:49.101Z,22.52
2019-05-11T13:26:18.846Z,22.82
2019-05-11T13:28:48.690Z,23.06
2019-05-11T13:31:18.871Z,22.78
2019-05-11T13:33:48.660Z,22.98
2019-05-11T13:36:18.786Z,23.04
2019-05-11T13:38:48.970Z,22.75
2019-05-11T13:41:19.112Z,22.35
2019-05-11T13:43:48.976Z,22.24
2019-05-11T13:46:18.464Z,21.89
2019-05-11T13:48:48.112Z,21.54
2019-05-11T13:51:18.410Z,21.72
2019-05-11T13:53:48.437Z,22.09
2019-05-11T13:56:18.616Z,22.05
2019-05-11T13:58:48.972Z,22.16
2019-05-11T14:01:19.088Z,22.28
2019-05-11T14:03:48.702Z,22.36
2019-05-11T14:06:18.830Z,21.94
2019-05-11T14:08:48.476Z,22.05
2019-05-11T14:11:18.459Z,21.99
2019-05-11T14:13:48.240Z,21.87
2019-05-11T14:16:18.678Z,22.00
2019-05-11T14:18:49.066Z,21.56
2019-05-11T14:21:19.175Z,21.14
2019-05-11T14:23:48.766Z,21.14
2019-05-11T14:26:19.207Z,21.27
2019-05-11T14:28:49.346Z,21.25
2019-05-11T14:31:19.138Z,21.60
2019-05-11T14:33:49.094Z,21.74
2019-05-11T14:36:18.788Z,21.69
2019-05-11T14:38:48.893Z,21.94
2019-05-11T14:41:18.725Z,21.64
2019-05-11T14:43:51.407Z,21.80
2019-05-11T14:46:21.006Z,21.79
2019-05-11T14:48:50.591Z,21.47
2019-05-11T14:51:20.633Z,21.42
2019-05-11T14:53:50.213Z,21.31
2019-05-11T14:56:19.713Z,21.42
2019-05-11T14:58:49.448Z,21.46
2019-05-11T15:01:19.157Z,21.32
2019-05-11T15:03:48.893Z,21.31
2019-05-11T15:06:19.467Z,21.03
2019-05-11T15:08:51.953Z,20.90
2019-05-11T15:11:21.636Z,21.22
2019-05-11T15:13:51.421Z,21.61
2019-05-11T15:16:21.159Z,21.80
2019-05-11T15:18:51.016Z,21.70
2019-05-11T15:21:22.104Z,21.67
2019-05-11T15:23:51.828Z,21.87
2019-05-11T15:26:21.885Z,21.02
2019-05-11T15:28:51.601Z,20.98
2019-05-11T15:31:22.501Z,20.96
2019-05-11T15:33:52.194Z,21.23
2019-05-11T15:36:21.766Z,20.95
2019-05-11T15:38:51.540Z,20.83
2019-05-11T15:41:21.586Z,20.84
2019-05-11T15:43:53.354Z,20.83
2019-05-11T15:46:23.104Z,20.71
2019-05-11T15:48:58.805Z,20.52
2019-05-11T15:51:23.889Z,20.84
2019-05-11T15:53:53.414Z,20.71
2019-05-11T15:56:22.937Z,20.76
2019-05-11T15:58:52.496Z,20.70
2019-05-11T16:01:22.147Z,20.73
2019-05-11T16:03:51.738Z,20.57
2019-05-11T16:06:22.375Z,20.22
2019-05-11T16:08:52.046Z,20.21
2019-05-11T16:11:21.579Z,20.04
2019-05-11T16:13:51.171Z,20.02
2019-05-11T16:16:20.699Z,19.94
2019-05-11T16:18:50.968Z,19.85
2019-05-11T16:21:20.639Z,19.20
2019-05-11T16:23:50.539Z,19.43
2019-05-11T16:26:20.032Z,19.59
2019-05-11T16:28:49.939Z,19.60
2019-05-11T16:31:19.455Z,19.37
2019-05-11T16:33:49.082Z,19.42
2019-05-11T18:42:08.273Z,15.92
2019-05-11T18:44:39.562Z,15.82
2019-05-11T18:47:09.151Z,15.87
2019-05-11T18:49:38.813Z,15.83
2019-05-11T18:52:08.422Z,15.98
2019-05-11T18:54:38.477Z,15.94
2019-05-11T18:57:08.471Z,15.78
2019-05-11T18:59:38.061Z,15.89
2019-05-11T19:02:08.442Z,15.82
2019-05-11T19:04:38.321Z,15.75
2019-05-11T19:07:16.741Z,15.69
2019-05-11T19:09:39.289Z,15.56
2019-05-11T19:12:09.051Z,15.47
2019-05-11T19:14:38.691Z,15.71
2019-05-11T19:17:08.299Z,15.56
2019-05-11T19:19:41.502Z,15.55
2019-05-11T19:22:11.540Z,15.59
2019-05-11T19:24:41.053Z,15.52
2019-05-11T19:27:10.656Z,15.46
2019-05-11T19:29:40.165Z,15.29
2019-05-11T19:32:11.080Z,15.29
2019-05-11T19:34:40.953Z,15.17
2019-05-11T19:37:10.559Z,15.11
2019-05-11T19:39:40.280Z,15.12
2019-05-11T19:42:11.995Z,15.03
2019-05-11T19:44:43.716Z,15.02
2019-05-11T19:47:14.992Z,15.08
2019-05-11T19:49:44.587Z,15.01
2019-05-11T19:52:14.174Z,14.85
2019-05-11T19:54:43.887Z,14.76
2019-05-11T19:57:13.720Z,14.73
2019-05-11T19:59:43.521Z,14.46
2019-05-11T20:02:13.646Z,14.50
2019-05-11T20:04:43.477Z,14.59
2019-05-11T20:07:13.114Z,14.44
2019-05-11T20:09:42.828Z,14.36
2019-05-11T20:12:12.472Z,14.12
2019-05-11T20:14:42.151Z,14.27
2019-05-11T20:17:11.925Z,14.33
2019-05-11T20:19:41.680Z,14.31
2019-05-11T20:22:11.229Z,14.42
2019-05-11T20:24:41.271Z,14.32
2019-05-11T20:27:11.016Z,14.37
2019-05-11T20:29:40.658Z,14.30
2019-05-11T20:32:10.556Z,14.29
2019-05-11T20:34:40.052Z,14.14
2019-05-11T20:37:09.840Z,14.19
2019-05-11T20:39:39.718Z,14.15
2019-05-11T20:42:09.260Z,13.97
2019-05-11T20:44:39.574Z,13.80
2019-05-11T20:47:09.851Z,13.75
2019-05-11T20:49:39.473Z,13.66
2019-05-11T20:52:09.257Z,13.48
2019-05-11T20:54:38.832Z,13.55
2019-05-11T20:57:08.990Z,13.55
2019-05-11T20:59:38.906Z,13.65
2019-05-11T21:02:09.268Z,13.62
2019-05-11T21:04:39.412Z,13.51
2019-05-11T21:07:09.006Z,13.46
2019-05-11T21:09:39.761Z,13.21
2019-05-11T21:12:09.528Z,13.17
2019-05-11T21:14:39.202Z,13.18
2019-05-11T21:17:09.108Z,13.19
2019-05-11T21:19:42.421Z,13.16
2019-05-11T21:22:14.818Z,13.04
2019-05-11T21:24:49.338Z,13.30
2019-05-11T21:27:19.965Z,13.14
2019-05-11T21:29:49.127Z,12.92
2019-05-11T21:32:19.128Z,12.78
2019-05-11T21:34:49.018Z,12.71
2019-05-11T21:37:18.838Z,12.75
2019-05-11T21:39:49.051Z,12.87
2019-05-11T21:42:18.727Z,12.72
2019-05-11T21:44:48.617Z,12.67
2019-05-11T21:47:18.434Z,12.74
2019-05-11T21:49:48.491Z,12.80
2019-05-11T21:52:18.535Z,12.59
2019-05-11T21:54:49.065Z,12.47
2019-05-11T21:57:18.806Z,12.60
2019-05-11T21:59:49.287Z,12.59
2019-05-11T22:02:19.363Z,12.60
2019-05-11T22:04:49.167Z,12.54
2019-05-11T22:07:18.739Z,12.62
2019-05-11T22:09:48.444Z,12.58
2019-05-11T22:12:18.756Z,12.46
2019-05-11T22:14:48.951Z,12.55
2019-05-11T22:17:18.830Z,12.35
2019-05-11T22:19:49.034Z,12.24
2019-05-11T22:22:24.867Z,12.18
2019-05-11T22:24:50.799Z,12.26
2019-05-11T22:27:20.394Z,12.24
2019-05-11T22:29:50.083Z,12.09
2019-05-11T22:32:19.776Z,11.94
2019-05-11T22:34:49.388Z,11.95
2019-05-11T22:37:18.935Z,11.95
2019-05-11T22:39:49.498Z,12.05
2019-05-11T22:42:19.893Z,11.95
2019-05-11T22:44:49.950Z,11.83
2019-05-11T22:47:19.700Z,12.00
2019-05-11T22:49:50.612Z,12.00
2019-05-11T22:52:32.964Z,11.98
2019-05-11T22:54:53.677Z,11.90
2019-05-11T22:57:26.658Z,11.91
2019-05-11T23:00:01.687Z,11.91
2019-05-11T23:02:31.893Z,11.70
2019-05-11T23:05:01.480Z,11.61
2019-05-11T23:07:31.052Z,11.39
2019-05-11T23:10:00.713Z,11.56
2019-05-11T23:12:30.331Z,11.56
2019-05-11T23:15:08.090Z,11.53
2019-05-11T23:17:38.688Z,11.57
2019-05-11T23:20:10.977Z,11.33
2019-05-11T23:22:57.426Z,11.54
2019-05-11T23:25:21.196Z,11.48
2019-05-11T23:27:50.934Z,11.40
2019-05-11T23:30:21.702Z,11.31
2019-05-11T23:32:51.876Z,11.31
2019-05-11T23:35:23.135Z,11.39
2019-05-11T23:37:53.834Z,11.35
2019-05-11T23:40:23.712Z,11.25
2019-05-11T23:42:53.231Z,11.29
2019-05-11T23:45:23.045Z,11.27
2019-05-11T23:47:52.617Z,11.24
2019-05-11T23:50:22.779Z,11.27
2019-05-11T23:53:05.587Z,11.28
2019-05-11T23:55:23.751Z,11.20
2019-05-11T23:57:53.274Z,11.14
